Oleh Malynovskyi

Olheiro-Chefe - Shakhtar
17 Jul 2027
Sábado
Processo

Personalidade

Adaptabilidade (6) Ambição (19) Controvérsia (13) Lealdade (5) Pressão (8) Profissionalismo (5) Espírito Esportivo (3) Temperamento (1)

Perfil

Estilo de Treinamento Democrático
Licença Nacional A
Determinação 12
Gestão de Pessoas 11
Motivação 15
Disciplina 14
Satisfação no Trabalho
95%
Fadiga
0%
Função Olheiro-Chefe
Salário 64.2K p/s
Contrato 14.03.2028

Desempenho

Comportamento Bom
Eficácia do Treinamento
50%
Desenvolvimento do Jogador
75%
Prevenção de Lesões
75%
Implementação Tática
55%

Eventos Recentes

Avaliou um jogador agora
Avaliou um jogador agora
Participou de uma reunião de recrutamento agora
Participou de uma reunião de recrutamento agora
Recomendou um alvo de transferência agora
Recomendou um alvo de transferência agora
Avaliou um jogador agora
Apresentou um dossiê à direção 7d atrás

Monitorando agora

168
Jogador Clube Status Habilidade Confiança Observado Última observação Último voto
Grégoire Coudert Burnley Ativo 132 / 126 40% 14 16.07.2027 -
Nathan Trott Cardiff City Ativo 127 / 131 40% 2 16.07.2027 -
Fran Vieites Exeter City Ativo 122 / 122 40% 1 16.07.2027 -
Samuel Edozie Southampton Ativo 129 / 128 40% 1 16.07.2027 -
Abdul Fatawu Leicester City Ativo 139 / 141 40% 1 16.07.2027 -
Todd Cantwell Blackburn Rovers Ativo 135 / 134 40% 1 16.07.2027 -
Maílson Al-Taawoun Ativo 134 / 121 40% 7 13.07.2027 -
Svetoslav Vutsov Levski Ativo 129 / 125 40% 10 13.07.2027 -
Egil Selvik Watford Ativo 132 / 127 40% 14 13.07.2027 -
Adrian Šemper Al-Fateh Ativo 136 / 130 40% 6 12.07.2027 -
Alex Palmer Ipswich Town Ativo 130 / 136 40% 9 12.07.2027 -
Gustavo Hamer Sheffield United Ativo 139 / 141 40% 3 12.07.2027 -
Tomáš Rigo Stoke City Ativo 134 / 129 40% 1 12.07.2027 -
Isma Ruiz Córdoba Ativo 135 / 131 40% 1 12.07.2027 -
Radek Vítek Middlesbrough Ativo 143 / 144 40% 7 10.07.2027 -
Max O'Leary West Bromwich Albion Ativo 127 / 129 40% 8 10.07.2027 -
Balázs Tóth Blackburn Rovers Ativo 129 / 134 40% 7 07.07.2027 -
Mateusz Kochalski Qarabag Ativo 139 / 125 40% 8 07.07.2027 -
Jacob Widell Zetterström Derby County Ativo 135 / 137 40% 6 05.07.2027 -
Viktor Johansson Stoke City Ativo 137 / 134 40% 5 05.07.2027 -
Anthony Patterson Wrexham Ativo 136 / 133 40% 6 03.07.2027 -
Riccardo Gagno Vicenza Perdido 124 / 122 40% 1 03.07.2027 -
Alex Meret Napoli Ativo 159 / 156 40% 10 02.07.2027 -
Dmytro Riznyk AS Roma Ativo 144 / 146 40% 8 02.07.2027 -
Arijanet Murić Sassuolo Ativo 142 / 138 40% 8 28.06.2027 -
Carlos Paraco Metalist Ativo 116 / 113 86% 1 20.06.2027 Aprovar
Ilir Krasniqi Polissia Perdido 122 / 111 86% 1 17.06.2027 Aprovar
Yevhenii Pastukh LNZ Ativo 112 / 118 86% 1 16.06.2027 Aprovar
Tasos Douvikas Como Rejeitado 145 / 140 40% 3 14.06.2027 Rejeitar
Mateus Mané Wolverhampton Ativo 133 / 137 40% 1 14.06.2027 -
Taty Castellanos West Ham United Ativo 144 / 140 40% 1 14.06.2027 -
Agustín Ruberto River Plate Ativo 119 / 133 40% 1 13.06.2027 -
Mamadou Doumbia Rotherham United Ativo 121 / 123 40% 1 13.06.2027 -
Josh Keeley Luton Town Ativo 128 / 130 40% 4 11.06.2027 -
Edoardo Motta Lazio Ativo 130 / 134 40% 7 10.06.2027 -
Daniel Iversen Preston Ativo 129 / 126 40% 9 07.06.2027 -
Saša Lukić Ipswich Town Ativo 140 / 140 40% 2 05.06.2027 -
Andrea Carboni Monza Ativo 129 / 124 40% 1 05.06.2027 -
Bitello Empoli Ativo 135 / 139 40% 1 05.06.2027 -
Erik Lira Cruz Azul Perdido 142 / 140 40% 1 05.06.2027 -
Samuele Angori Pisa Ativo 134 / 129 40% 3 03.06.2027 -
Aidan Morris Middlesbrough Ativo 129 / 132 40% 3 03.06.2027 -
Kostantis Tzolakis Hull City Ativo 145 / 141 40% 6 01.06.2027 -
Shea Charles Southampton Ativo 140 / 141 40% 3 01.06.2027 -
Guille Rosas Gijón Ativo 137 / 140 40% 3 01.06.2027 -
Max Johnston Derby County Ativo 129 / 124 40% 1 01.06.2027 -
Carl Rushworth Coventry City Ativo 141 / 144 40% 7 30.05.2027 -
Michael Cooper Sheffield United Ativo 132 / 129 40% 8 30.05.2027 -
Ben Nelson Leicester City Ativo 134 / 130 40% 3 30.05.2027 -
Morten Frendrup Genoa Ativo 143 / 135 40% 3 28.05.2027 -
Japhet Tanganga Sheffield United Ativo 133 / 128 40% 3 28.05.2027 -
Maduka Okoye Udinese Ativo 138 / 144 40% 6 23.05.2027 -
Simone Scuffet Pisa Ativo 131 / 127 40% 4 21.05.2027 -
James Trafford Leeds United Ativo 146 / 145 40% 6 19.05.2027 -
Muhammed Şengezer Basaksehir Ativo 128 / 136 40% 1 18.05.2027 -
Callum Doyle Wrexham Ativo 132 / 133 40% 3 17.05.2027 -
Stephen Eustáquio Swansea City Ativo 138 / 135 40% 2 17.05.2027 -
Bobby Thomas Coventry City Ativo 133 / 132 40% 7 16.05.2027 -
Roger Fernandes Al-Ittihad Ativo 136 / 147 40% 1 15.05.2027 -
Petar Stanić Ludogorets Ativo 139 / 140 40% 1 15.05.2027 -
Oliver Skipp Leicester City Ativo 130 / 128 40% 1 13.05.2027 -
Fábio Carvalho Brentford Ativo 140 / 140 40% 1 06.05.2027 -
Azor Matusiwa Ipswich Town Ativo 137 / 139 40% 1 06.05.2027 -
Tim Iroegbunam Hull City Ativo 137 / 134 40% 2 04.05.2027 -
Toby Collyer West Bromwich Albion Ativo 133 / 131 40% 3 02.05.2027 -
Welington Southampton Ativo 131 / 130 40% 3 01.05.2027 -
Thierry Rendall Correia Venezia Ativo 140 / 136 40% 1 28.04.2027 -
Carlos Vicente Udinese Ativo 143 / 140 40% 1 28.04.2027 -
Luke McNally Bristol City Ativo 129 / 125 40% 2 15.04.2027 -
Imrân Louza Watford Ativo 133 / 135 40% 2 10.04.2027 -
Lorenzo Palmisani Frosinone Ativo 130 / 126 40% 4 09.04.2027 -
Marco Carnesecchi Torino Ativo 161 / 156 40% 1 09.04.2027 -
Emam Ashour Al Ahly Ativo 142 / 141 40% 3 01.04.2027 -
Dean Henderson Crystal Palace Ativo 150 / 152 40% 1 01.04.2027 -
Rolando Mandragora Torino Ativo 143 / 144 40% 1 26.03.2027 -
Dara O'Shea Ipswich Town Ativo 137 / 138 40% 2 21.03.2027 -
Mads Hermansen West Ham United Ativo 141 / 140 40% 1 21.03.2027 -
Max Bird Birmingham Ativo 130 / 129 40% 1 21.03.2027 -
Nobel Mendy Hull City Ativo 131 / 134 40% 2 20.03.2027 -
Vitaliy Mykolenko Everton Ativo 133 / 140 40% 1 20.03.2027 -
Joachim Andersen Fulham Ativo 149 / 144 40% 1 11.03.2027 -
Ramón Terrats Getafe Ativo 141 / 135 40% 1 06.03.2027 Mais informações
Álex Valle Como Ativo 137 / 137 40% 1 02.03.2027 -
Dominik Takáč Slovan Bratislava Ativo 128 / 133 40% 1 26.02.2027 -
Mohamed Camara Maccabi Tel Aviv Ativo 138 / 146 40% 4 21.02.2027 -
Pedro Malheiro Al Wasl Ativo 144 / 138 40% 1 21.02.2027 -
Noah Sadiki Sunderland Ativo 143 / 144 40% 1 21.02.2027 -
Mark Travers Everton Ativo 137 / 133 40% 1 19.02.2027 -
Sol Brynn Middlesbrough Ativo 128 / 120 40% 1 19.02.2027 -
Tyrell Malacia Derby County Ativo 139 / 138 40% 1 19.02.2027 -
Nicolò Fagioli Fiorentina Ativo 142 / 141 40% 1 18.02.2027 -
Mateo Pellegrino Fiorentina Ativo 141 / 140 40% 3 25.01.2027 -
Noah Okafor Leeds United Ativo 138 / 144 40% 2 25.01.2027 -
Brian Brobbey Sunderland Ativo 140 / 146 40% 1 25.01.2027 -
Nikola Vlašić Torino Ativo 147 / 139 40% 2 24.01.2027 -
Gonzalo Fulham Ativo 145 / 143 40% 1 24.01.2027 -
Jens Odgaard Bologna Ativo 141 / 145 40% 2 23.01.2027 -
Ricardo Pepi Napoli Ativo 143 / 139 40% 15 22.01.2027 -
Ainsley Maitland-Niles Everton Ativo 137 / 137 40% 1 22.01.2027 -
Tariq Lamptey Queens Park Rangers Ativo 137 / 129 40% 1 21.01.2027 -
Xaver Schlager Nottingham Forest Ativo 151 / 144 40% 1 19.01.2027 -
Adrien Truffert Bournemouth Ativo 151 / 154 40% 1 19.01.2027 -
Ivan Toney Al-Ahli Ativo 150 / 146 40% 23 17.01.2027 -
Steven Bergwijn Al-Ittihad Ativo 154 / 143 40% 28 17.01.2027 -
Taiwo Awoniyi Coventry City Ativo 138 / 140 40% 2 17.01.2027 -
Matías Fernández-Pardo Newcastle United Ativo 139 / 142 40% 7 14.01.2027 -
Veljko Birmančević Ferencvaros Ativo 135 / 128 40% 5 13.01.2027 -
Nicolò Zaniolo Udinese Ativo 146 / 138 40% 1 10.01.2027 -
Youssef En-Nesyri Al-Ittihad Ativo 138 / 149 40% 23 08.01.2027 -
Roger François Udinese Ativo 141 / 143 40% 2 08.01.2027 -
Jordan Zemura Udinese Ativo 135 / 131 40% 1 08.01.2027 -
Odilon Kossounou Atalanta Ativo 145 / 140 40% 1 08.01.2027 -
Juan Brunetta Torino Ativo 143 / 136 40% 1 07.01.2027 -
Szabolcs Szoboszlai Haladas Ativo 136 / 129 40% 8 01.01.2027 -
Nadir Zortea Bologna Ativo 140 / 133 40% 1 01.01.2027 -
Andrea Pinamonti Lazio Ativo 135 / 134 40% 1 28.12.2026 -
Nicolò Rovella Lazio Ativo 148 / 147 40% 1 27.12.2026 -
Mattia Viti Sampdoria Ativo 134 / 133 40% 1 25.12.2026 -
Teun Koopmeiners Juventus Ativo 146 / 149 40% 1 25.12.2026 -
Nuno Tavares Lazio Ativo 147 / 139 40% 1 25.12.2026 -
Marc Pubill Atlético Madrid Ativo 145 / 142 40% 3 24.12.2026 -
Christian Makoun Levski Ativo 128 / 123 40% 1 24.12.2026 -
Troy Parrott Betis Ativo 138 / 138 40% 5 21.12.2026 -
Valentín Barco Chelsea Ativo 139 / 139 40% 2 20.12.2026 -
Mustafa Hekimoğlu Trabzonspor Ativo 114 / 134 40% 1 17.12.2026 -
Thalys Almería Ativo 117 / 128 40% 1 16.12.2026 -
Ângelo Al-Nassr Ativo 136 / 127 40% 2 15.12.2026 -
Matías Palacios Al Ain Ativo 131 / 128 40% 1 15.12.2026 -
Ollie Watkins Al-Hilal Ativo 156 / 150 40% 19 12.12.2026 -
Álvaro Carreras Real Madrid Ativo 152 / 147 40% 2 07.12.2026 -
Breel Embolo Atlanta United FC Ativo 138 / 144 40% 8 27.11.2026 -
Rodrigo Ribeiro Werder Bremen Ativo 120 / 132 40% 1 27.11.2026 -
João Muniz Sporting CP Ativo 117 / 116 40% 1 27.11.2026 -
Eric Smith St. Pauli Ativo 136 / 134 40% 2 26.11.2026 -
Adryelson Al Wasl Ativo 133 / 123 40% 1 26.11.2026 -
Fabian Rieder FC Augsburg Ativo 136 / 136 40% 4 24.11.2026 -
Rúben Neves Al-Hilal Ativo 154 / 149 40% 3 18.11.2026 -
Théo Hernández Al-Hilal Ativo 152 / 146 40% 1 10.11.2026 -
Tijjani Reijnders Al-Qadisiyah Ativo 157 / 150 40% 1 10.11.2026 -
Kaveh Azmoun Siah Jamegan Ativo 128 / 134 40% 1 05.11.2026 -
Oleh Ilin Bukovyna Ativo 104 / 104 30% 1 / 1m 04.11.2026 -
Maksym Voitikhovskyi Bukovyna Ativo 102 / 102 30% 1 / 1m 04.11.2026 -
Ehsan Beiranvand Padideh Ativo 137 / 145 40% 1 03.11.2026 -
Yacine Adli Al-Shabab Ativo 142 / 145 40% 2 23.10.2026 -
Frans Krätzig Red Bull Salzburg Ativo 126 / 125 40% 1 23.10.2026 -
Petar Sučić Inter Ativo 146 / 141 40% 1 23.10.2026 -
Nico Elvedi Leeds United Ativo 135 / 133 40% 1 23.10.2026 -
Xavier Biscayzacú Sporting CP Ativo 122 / 127 40% 1 20.10.2026 -
Sidiki Chérif Coventry City Ativo 120 / 135 40% 1 14.10.2026 -
Yves Bissouma Tottenham Ativo 140 / 148 40% 1 12.10.2026 -
Oumar Camara Vitoria Guimaraes Ativo 117 / 131 40% 1 01.10.2026 -
Jonathan De Irastorza Levante Ativo 115 / 128 40% 1 01.10.2026 -
Robin Fellhauer FC Augsburg Ativo 134 / 131 40% 1 29.09.2026 -
Leon Grgić Sturm Graz Ativo 120 / 126 40% 1 26.09.2026 -
João Simões Sporting CP Ativo 133 / 140 40% 1 24.09.2026 -
Merih Demiral Al-Ahli Ativo 131 / 142 40% 1 24.09.2026 -
Maxim De Cuyper Brighton Ativo 136 / 143 40% 1 19.09.2026 -
Illia Krupskyi Oleksandriya Ativo 117 / 120 40% 1 13.09.2026 -
Sondre Auklend Valerenga Ativo 123 / 130 40% 1 13.09.2026 -
Mohamed Simakan Al-Nassr Ativo 141 / 135 40% 1 12.09.2026 -
Christos Zafeiris FC Copenhagen Ativo 143 / 147 40% 1 12.09.2026 -
Anton Dovbyk Ahrobiznes Ativo 60 / 65 30% 1 / 1m 26.08.2026 -
Simon Haloian Livyi Bereh Ativo 83 / 86 42% 1 / 1m 26.08.2026 -
Denys Rezepov Nyva Ativo 94 / 97 30% 1 / 1m 26.08.2026 -
Yevhenii Profatylo Podillia Ativo 80 / 85 30% 1 / 1m 26.08.2026 -
Vladyslav Chaban Podillia Ativo 74 / 77 30% 1 / 1m 26.08.2026 -
Mbekezeli Mbokazi Chicago Fire Ativo 116 / 125 40% 1 02.08.2026 -
Arnau Martínez Valencia Ativo 138 / 144 40% 1 02.08.2026 -